Time,TemperatureF,DewpointF,PressureIn,WindDirection,WindDirectionDegrees,WindSpeedMPH,WindSpeedGustMPH,Humidity,HourlyPrecipIn,Conditions,Clouds,dailyrainin,SoftwareType,DateUTC
2015-01-26 06:30:00,38.5,37.7,30.06,NNW,338,1.0,1.0,97,0.00,,,0.01,Wunderground v.1.15,2015-01-26 14:30:00,
2015-01-26 06:40:00,38.6,37.8,30.06,NNW,342,1.0,1.0,97,0.00,,,0.01,Wunderground v.1.15,2015-01-26 14:40:00,
2015-01-26 06:50:00,38.7,37.9,30.06,NW,325,1.0,1.0,97,0.00,,,0.01,Wunderground v.1.15,2015-01-26 14:50:00,
2015-01-26 07:00:00,38.8,38.0,30.06,NNW,343,1.0,1.0,97,0.00,,,0.01,Wunderground v.1.15,2015-01-26 15:00:00,
2015-01-26 07:05:00,38.9,38.1,30.07,North,352,1.0,1.0,97,0.00,,,0.01,Wunderground v.1.15,2015-01-26 15:05:00,
2015-01-26 07:15:00,38.9,38.1,30.06,NNE,23,1.0,3.0,97,0.00,,,0.01,Wunderground v.1.15,2015-01-26 15:15:00,
2015-01-26 07:25:00,39.0,38.2,30.06,NE,36,1.0,1.0,97,0.00,,,0.01,Wunderground v.1.15,2015-01-26 15:25:00,
2015-01-26 07:35:00,39.1,38.3,30.06,NNW,339,1.0,1.0,97,0.00,,,0.01,Wunderground v.1.15,2015-01-26 15:35:00,
2015-01-26 07:45:00,39.2,38.4,30.06,NW,320,1.0,1.0,97,0.00,,,0.01,Wunderground v.1.15,2015-01-26 15:45:00,
2015-01-26 07:55:00,39.5,38.7,30.06,NNW,332,1.0,2.0,97,0.00,,,0.01,Wunderground v.1.15,2015-01-26 15:55:00,
2015-01-26 08:05:00,39.5,38.7,30.07,WNW,302,1.0,1.0,97,0.00,,,0.01,Wunderground v.1.15,2015-01-26 16:05:00,
2015-01-26 08:15:00,39.6,38.8,30.06,NW,324,2.0,2.0,97,0.00,,,0.01,Wunderground v.1.15,2015-01-26 16:15:00,
2015-01-26 08:20:00,39.7,38.9,30.06,NW,321,2.0,3.0,97,0.00,,,0.01,Wunderground v.1.15,2015-01-26 16:20:00,
2015-01-26 08:30:00,39.9,39.1,30.07,North,11,2.0,2.0,97,0.00,,,0.01,Wunderground v.1.15,2015-01-26 16:30:00,
2015-01-26 08:40:00,40.2,39.4,30.06,NW,324,1.0,1.0,97,0.00,,,0.01,Wunderground v.1.15,2015-01-26 16:40:00,
2015-01-26 08:50:00,40.4,39.6,30.07,NNW,337,2.0,2.0,97,0.00,,,0.01,Wunderground v.1.15,2015-01-26 16:50:00,
2015-01-26 09:00:00,40.7,39.9,30.07,NW,307,1.0,1.0,97,0.00,,,0.01,Wunderground v.1.15,2015-01-26 17:00:00,
2015-01-26 09:05:00,40.7,39.9,30.07,WNW,289,1.0,1.0,97,0.00,,,0.01,Wunderground v.1.15,2015-01-26 17:05:00,
2015-01-26 09:15:00,41.0,40.2,30.07,WNW,290,1.0,2.0,97,0.00,,,0.01,Wunderground v.1.15,2015-01-26 17:15:00,
2015-01-26 09:25:00,41.0,40.2,30.06,NW,316,1.0,3.0,97,0.00,,,0.01,Wunderground v.1.15,2015-01-26 17:25:00,
2015-01-26 09:35:00,40.9,40.1,30.07,West,281,2.0,2.0,97,0.00,,,0.01,Wunderground v.1.15,2015-01-26 17:35:00,
2015-01-26 09:40:00,41.1,40.3,30.08,WNW,290,1.0,1.0,97,0.00,,,0.01,Wunderground v.1.15,2015-01-26 17:40:00,
2015-01-26 09:50:00,41.1,40.3,30.08,WNW,291,2.0,2.0,97,0.00,,,0.01,Wunderground v.1.15,2015-01-26 17:50:00,
2015-01-26 10:00:00,41.3,40.5,30.08,WNW,284,2.0,2.0,97,0.00,,,0.01,Wunderground v.1.15,2015-01-26 18:00:00,
2015-01-26 10:05:00,41.4,40.6,30.08,West,278,2.0,2.0,97,0.00,,,0.01,Wunderground v.1.15,2015-01-26 18:05:00,
2015-01-26 10:15:00,41.8,41.0,30.07,West,281,2.0,3.0,97,0.00,,,0.01,Wunderground v.1.15,2015-01-26 18:15:00,
2015-01-26 10:20:00,41.7,40.9,30.07,NW,323,3.0,3.0,97,0.00,,,0.01,Wunderground v.1.15,2015-01-26 18:20:00,
2015-01-26 10:30:00,42.5,41.7,30.07,NW,309,3.0,3.0,97,0.00,,,0.01,Wunderground v.1.15,2015-01-26 18:30:00,
2015-01-26 10:40:00,42.7,41.9,30.07,NW,323,3.0,3.0,97,0.00,,,0.01,Wunderground v.1.15,2015-01-26 18:40:00,
2015-01-26 10:50:00,42.9,42.1,30.07,NW,324,3.0,3.0,97,0.00,,,0.01,Wunderground v.1.15,2015-01-26 18:50:00,
2015-01-26 11:00:00,43.7,42.9,30.07,NW,320,3.0,4.0,97,0.00,,,0.01,Wunderground v.1.15,2015-01-26 19:00:00,
2015-01-26 11:05:00,44.0,43.2,30.07,NW,308,3.0,4.0,97,0.00,,,0.01,Wunderground v.1.15,2015-01-26 19:05:00,
2015-01-26 11:10:00,44.0,43.2,30.07,West,276,3.0,4.0,97,0.00,,,0.01,Wunderground v.1.15,2015-01-26 19:10:00,
2015-01-26 11:20:00,44.1,43.3,30.06,West,271,3.0,3.0,97,0.00,,,0.01,Wunderground v.1.15,2015-01-26 19:20:00,
2015-01-26 11:25:00,44.3,43.5,30.06,West,271,3.0,3.0,97,0.00,,,0.01,Wunderground v.1.15,2015-01-26 19:25:00,
2015-01-26 11:35:00,44.5,43.7,30.06,NW,318,3.0,3.0,97,0.00,,,0.01,Wunderground v.1.15,2015-01-26 19:35:00,
2015-01-26 11:45:00,45.3,44.5,30.05,NW,314,3.0,5.0,97,0.00,,,0.01,Wunderground v.1.15,2015-01-26 19:45:00,
2015-01-26 11:50:00,45.7,44.9,30.05,NNW,335,3.0,4.0,97,0.00,,,0.01,Wunderground v.1.15,2015-01-26 19:50:00,
2015-01-26 12:00:00,46.2,45.4,30.04,West,262,2.0,2.0,97,0.00,,,0.01,Wunderground v.1.15,2015-01-26 20:00:00,
2015-01-26 12:05:00,46.5,45.7,30.04,WSW,252,2.0,2.0,97,0.00,,,0.01,Wunderground v.1.15,2015-01-26 20:05:00,
2015-01-26 12:15:00,47.5,46.7,30.04,West,263,2.0,2.0,97,0.00,,,0.01,Wunderground v.1.15,2015-01-26 20:15:00,
2015-01-26 12:25:00,48.5,47.7,30.03,NW,326,2.0,3.0,97,0.00,,,0.01,Wunderground v.1.15,2015-01-26 20:25:00,
2015-01-26 12:30:00,48.9,48.1,30.02,NNW,342,2.0,2.0,97,0.00,,,0.01,Wunderground v.1.15,2015-01-26 20:30:00,
2015-01-26 12:40:00,49.3,48.5,30.02,NW,309,2.0,2.0,97,0.00,,,0.01,Wunderground v.1.15,2015-01-26 20:40:00,
2015-01-26 12:50:00,50.2,49.4,30.01,NNE,16,2.0,3.0,97,0.00,,,0.01,Wunderground v.1.15,2015-01-26 20:50:00,
2015-01-26 12:55:00,50.6,49.5,30.00,NNW,345,3.0,3.0,96,0.00,,,0.01,Wunderground v.1.15,2015-01-26 20:55:00,
2015-01-26 13:05:00,51.4,50.3,30.01,NW,325,2.0,2.0,96,0.00,,,0.01,Wunderground v.1.15,2015-01-26 21:05:00,
2015-01-26 13:10:00,51.5,49.8,30.00,NW,323,2.0,2.0,94,0.00,,,0.01,Wunderground v.1.15,2015-01-26 21:10:00,
2015-01-26 13:20:00,52.6,50.6,30.00,NW,326,1.0,1.0,93,0.00,,,0.01,Wunderground v.1.15,2015-01-26 21:20:00,
2015-01-26 13:30:00,53.6,50.1,30.00,NW,314,2.0,2.0,88,0.00,,,0.01,Wunderground v.1.15,2015-01-26 21:30:00,
2015-01-26 13:40:00,55.2,51.1,29.99,NNW,342,1.0,1.0,86,0.00,,,0.01,Wunderground v.1.15,2015-01-26 21:40:00,
2015-01-26 13:45:00,55.8,50.7,29.99,WNW,293,1.0,3.0,83,0.00,,,0.01,Wunderground v.1.15,2015-01-26 21:45:00,
2015-01-26 13:55:00,55.8,49.7,29.98,NW,308,2.0,3.0,80,0.00,,,0.01,Wunderground v.1.15,2015-01-26 21:55:00,
2015-01-26 14:05:00,56.1,50.0,29.99,SW,221,1.0,2.0,80,0.00,,,0.01,Wunderground v.1.15,2015-01-26 22:05:00,
2015-01-26 14:15:00,57.2,49.7,29.98,NW,316,1.0,1.0,76,0.00,,,0.01,Wunderground v.1.15,2015-01-26 22:15:00,
2015-01-26 14:25:00,56.8,49.3,29.98,WSW,239,2.0,3.0,76,0.00,,,0.01,Wunderground v.1.15,2015-01-26 22:25:00,
2015-01-26 14:35:00,57.4,49.2,29.98,WNW,293,1.0,1.0,74,0.00,,,0.01,Wunderground v.1.15,2015-01-26 22:35:00,
2015-01-26 14:40:00,57.0,49.2,29.98,WNW,291,1.0,1.0,75,0.00,,,0.01,Wunderground v.1.15,2015-01-26 22:40:00,
2015-01-26 14:50:00,56.9,49.1,29.98,West,263,1.0,1.0,75,0.00,,,0.01,Wunderground v.1.15,2015-01-26 22:50:00,
2015-01-26 15:00:00,57.3,49.4,29.98,SW,235,0.0,1.0,75,0.00,,,0.01,Wunderground v.1.15,2015-01-26 23:00:00,
2015-01-26 15:05:00,57.6,49.4,29.98,West,263,0.0,1.0,74,0.00,,,0.01,Wunderground v.1.15,2015-01-26 23:05:00,
2015-01-26 15:15:00,57.6,49.4,29.98,South,176,1.0,1.0,74,0.00,,,0.01,Wunderground v.1.15,2015-01-26 23:15:00,
2015-01-26 15:20:00,58.0,49.4,29.98,ESE,117,0.0,0.0,73,0.00,,,0.01,Wunderground v.1.15,2015-01-26 23:20:00,
2015-01-26 15:30:00,57.8,48.8,29.98,SE,127,1.0,1.0,72,0.00,,,0.01,Wunderground v.1.15,2015-01-26 23:30:00,
2015-01-26 15:40:00,57.0,48.8,29.98,ESE,104,1.0,2.0,74,0.00,,,0.01,Wunderground v.1.15,2015-01-26 23:40:00,
2015-01-26 15:50:00,56.8,49.0,29.98,SSE,161,0.0,1.0,75,0.00,,,0.01,Wunderground v.1.15,2015-01-26 23:50:00,
2015-01-26 15:55:00,56.9,49.1,29.98,WSW,240,0.0,1.0,75,0.00,,,0.01,Wunderground v.1.15,2015-01-26 23:55:00,
2015-01-26 16:05:00,57.0,49.2,29.98,ESE,118,0.0,0.0,75,0.00,,,0.01,Wunderground v.1.15,2015-01-27 00:05:00,
2015-01-26 16:15:00,56.7,49.2,29.98,SSE,161,2.0,3.0,76,0.00,,,0.01,Wunderground v.1.15,2015-01-27 00:15:00,
2015-01-26 16:25:00,56.3,48.8,29.98,ESE,121,1.0,2.0,76,0.00,,,0.01,Wunderground v.1.15,2015-01-27 00:25:00,
2015-01-26 16:35:00,55.9,48.8,29.99,SE,129,1.0,3.0,77,0.00,,,0.01,Wunderground v.1.15,2015-01-27 00:35:00,
2015-01-26 16:40:00,55.7,48.6,29.99,East,95,1.0,1.0,77,0.00,,,0.01,Wunderground v.1.15,2015-01-27 00:40:00,
2015-01-26 16:50:00,55.3,48.9,29.99,SE,131,1.0,1.0,79,0.00,,,0.01,Wunderground v.1.15,2015-01-27 00:50:00,
2015-01-26 17:00:00,54.8,48.7,29.99,SSE,154,1.0,1.0,80,0.00,,,0.01,Wunderground v.1.15,2015-01-27 01:00:00,
2015-01-26 17:05:00,54.6,48.9,29.99,SW,233,1.0,1.0,81,0.00,,,0.01,Wunderground v.1.15,2015-01-27 01:05:00,
2015-01-26 17:15:00,54.1,48.7,29.99,South,187,1.0,1.0,82,0.00,,,0.01,Wunderground v.1.15,2015-01-27 01:15:00,
2015-01-26 17:20:00,53.8,48.4,29.99,SE,124,1.0,2.0,82,0.00,,,0.01,Wunderground v.1.15,2015-01-27 01:20:00,
2015-01-26 17:30:00,53.4,48.4,29.99,ESE,123,1.0,1.0,83,0.00,,,0.01,Wunderground v.1.15,2015-01-27 01:30:00,
2015-01-26 17:40:00,52.9,48.2,29.99,ESE,114,1.0,1.0,84,0.00,,,0.01,Wunderground v.1.15,2015-01-27 01:40:00,
2015-01-26 17:50:00,52.5,48.1,29.99,ESE,116,0.0,1.0,85,0.00,,,0.01,Wunderground v.1.15,2015-01-27 01:50:00,
2015-01-26 18:00:00,52.1,47.7,30.00,ESE,107,1.0,1.0,85,0.00,,,0.01,Wunderground v.1.15,2015-01-27 02:00:00,
2015-01-26 18:05:00,51.9,47.5,30.00,ESE,113,0.0,1.0,85,0.00,,,0.01,Wunderground v.1.15,2015-01-27 02:05:00,
2015-01-26 18:15:00,51.6,47.5,30.00,ESE,113,0.0,0.0,86,0.00,,,0.01,Wunderground v.1.15,2015-01-27 02:15:00,
2015-01-26 18:25:00,51.4,47.4,30.00,ESE,113,0.0,0.0,86,0.00,,,0.01,Wunderground v.1.15,2015-01-27 02:25:00,
2015-01-26 18:35:00,50.9,46.9,30.00,ESE,113,0.0,0.0,86,0.00,,,0.01,Wunderground v.1.15,2015-01-27 02:35:00,
2015-01-26 18:45:00,50.4,46.7,30.00,ESE,113,0.0,0.0,87,0.00,,,0.01,Wunderground v.1.15,2015-01-27 02:45:00,
2015-01-26 18:55:00,50.0,46.3,29.99,ESE,113,0.0,0.0,87,0.00,,,0.01,Wunderground v.1.15,2015-01-27 02:55:00,
2015-01-26 19:00:00,49.6,45.9,29.99,ESE,113,0.0,0.0,87,0.00,,,0.01,Wunderground v.1.15,2015-01-27 03:00:00,
2015-01-26 19:05:00,49.3,45.9,29.99,ESE,113,0.0,0.0,88,0.00,,,0.01,Wunderground v.1.15,2015-01-27 03:05:00,
2015-01-26 19:15:00,48.9,45.8,30.00,ESE,123,0.0,0.0,89,0.00,,,0.01,Wunderground v.1.15,2015-01-27 03:15:00,
2015-01-26 19:25:00,49.3,46.5,30.01,SE,127,1.0,1.0,90,0.00,,,0.01,Wunderground v.1.15,2015-01-27 03:25:00,
2015-01-26 19:35:00,49.5,46.7,30.00,ESE,113,1.0,2.0,90,0.00,,,0.01,Wunderground v.1.15,2015-01-27 03:35:00,
2015-01-26 19:45:00,49.2,46.4,30.00,ESE,122,1.0,1.0,90,0.00,,,0.01,Wunderground v.1.15,2015-01-27 03:45:00,
2015-01-26 19:55:00,49.0,46.2,30.00,ESE,120,0.0,0.0,90,0.00,,,0.01,Wunderground v.1.15,2015-01-27 03:55:00,
2015-01-26 20:05:00,48.9,46.1,30.00,ESE,122,1.0,1.0,90,0.00,,,0.01,Wunderground v.1.15,2015-01-27 04:05:00,
2015-01-26 20:15:00,48.8,46.0,30.00,ESE,108,1.0,2.0,90,0.00,,,0.01,Wunderground v.1.15,2015-01-27 04:15:00,
2015-01-26 20:20:00,48.8,46.0,30.00,ESE,115,1.0,1.0,90,0.00,,,0.01,Wunderground v.1.15,2015-01-27 04:20:00,
2015-01-26 20:30:00,48.7,45.9,29.99,SE,127,0.0,0.0,90,0.00,,,0.01,Wunderground v.1.15,2015-01-27 04:30:00,
2015-01-26 20:40:00,48.6,46.1,29.99,SE,127,0.0,0.0,91,0.00,,,0.01,Wunderground v.1.15,2015-01-27 04:40:00,
2015-01-26 20:50:00,48.5,46.0,29.99,SE,127,0.0,0.0,91,0.00,,,0.01,Wunderground v.1.15,2015-01-27 04:50:00,
2015-01-26 21:00:00,48.2,45.7,29.98,SE,127,0.0,1.0,91,0.00,,,0.01,Wunderground v.1.15,2015-01-27 05:00:00,
2015-01-26 21:05:00,48.1,45.6,29.98,ESE,116,0.0,1.0,91,0.00,,,0.01,Wunderground v.1.15,2015-01-27 05:05:00,
2015-01-26 21:15:00,47.9,45.4,29.98,ESE,115,1.0,1.0,91,0.00,,,0.01,Wunderground v.1.15,2015-01-27 05:15:00,
2015-01-26 21:25:00,47.8,45.6,29.98,ESE,123,0.0,1.0,92,0.00,,,0.01,Wunderground v.1.15,2015-01-27 05:25:00,
2015-01-26 21:35:00,47.9,45.7,29.98,SE,125,1.0,1.0,92,0.00,,,0.01,Wunderground v.1.15,2015-01-27 05:35:00,
2015-01-26 21:45:00,48.1,45.9,29.98,SE,129,2.0,2.0,92,0.00,,,0.01,Wunderground v.1.15,2015-01-27 05:45:00,
2015-01-26 21:55:00,48.1,45.9,29.98,ESE,123,1.0,1.0,92,0.00,,,0.01,Wunderground v.1.15,2015-01-27 05:55:00,
2015-01-26 22:00:00,48.2,46.0,29.98,SE,131,2.0,2.0,92,0.00,,,0.01,Wunderground v.1.15,2015-01-27 06:00:00,
2015-01-26 22:10:00,48.2,46.0,29.99,SE,127,1.0,2.0,92,0.00,,,0.01,Wunderground v.1.15,2015-01-27 06:10:00,
2015-01-26 22:15:00,48.2,46.0,29.98,SE,136,2.0,2.0,92,0.00,,,0.01,Wunderground v.1.15,2015-01-27 06:15:00,
2015-01-26 22:25:00,48.2,46.0,29.98,ESE,115,1.0,3.0,92,0.00,,,0.01,Wunderground v.1.15,2015-01-27 06:25:00,